KMLJ/MLJ METAR and TAF weather

Enter ICAO airport designator
Station Type Date Time Source
KMLJ METAR 2020/01/21 15:35 UTC NOAA

KMLJ 211535Z AUTO 08006KT 10SM OVC065 01/M07 A3049 RMK AO2


Station Type Date Time Source
KMLJ Decoded METAR 2020/01/21 15:35 UTC NOAA

Milledgeville, Baldwin County Airport, GA, United States (KMLJ) 33-09-15N 083-14-26W
Jan 21, 2020 - 10:35 AM EST / 2020.01.21 1535 UTC
Wind: from the E (080 degrees) at 7 MPH (6 KT):0
Visibility: 10 mile(s):0
Sky conditions: overcast
Temperature: 33 F (1 C)
Windchill: 26 F (-3 C):1
Dew Point: 19 F (-7 C)
Relative Humidity: 55%
Pressure (altimeter): 30.49 in. Hg (1032 hPa)
ob: KMLJ 211535Z AUTO 08006KT 10SM OVC065 01/M07 A3049 RMK AO2
cycle: 15

Station Type Date Time Source
KMLJ TAF UTC NOAA

Error!

Example: see airport list